Time;durP1;ratioP1;P1;durP2;ratioP2;P2;SDS_P1;SDS_P2;PMS_P1;PMS_P2;Temp;Humidity;BMP_temperature;BMP_pressure;BME280_temperature;BME280_humidity;BME280_pressure;Samples;Min_cycle;Max_cycle;Signal;HPM_P1;HPM_P2
2021/01/08 00:01:47;;;;;;;23.50;13.63;;;0.30;99.90;;;;;;5008412;28;20124;-73
2021/01/08 00:04:14;;;;;;;31.70;14.57;;;0.40;99.90;;;;;;5006857;28;20054;-73
2021/01/08 00:06:40;;;;;;;26.58;12.68;;;0.40;99.90;;;;;;5008527;28;20104;-73
2021/01/08 00:09:07;;;;;;;25.33;13.65;;;0.50;99.90;;;;;;5004335;28;20041;-72
2021/01/08 00:11:35;;;;;;;29.92;14.82;;;0.30;99.90;;;;;;5004683;28;20116;-73
2021/01/08 00:14:05;;;;;;;24.20;12.38;;;0.40;99.90;;;;;;4982302;28;20078;-73
2021/01/08 00:16:35;;;;;;;31.58;15.32;;;0.40;99.90;;;;;;5007679;28;20077;-73
2021/01/08 00:19:02;;;;;;;20.23;10.00;;;0.40;99.90;;;;;;5008383;28;20053;-73
2021/01/08 00:21:42;;;;;;;24.35;13.10;;;0.40;99.90;;;;;;5009104;28;20093;-73
2021/01/08 00:24:12;;;;;;;24.42;11.63;;;0.40;99.90;;;;;;5008605;28;20148;-73
2021/01/08 00:26:40;;;;;;;24.30;11.25;;;0.40;99.90;;;;;;5008092;28;20045;-73
2021/01/08 00:29:09;;;;;;;21.42;12.57;;;0.40;99.90;;;;;;5009348;28;20133;-73
2021/01/08 00:31:45;;;;;;;22.10;11.57;;;0.50;99.90;;;;;;5008481;28;20045;-73
2021/01/08 00:34:16;;;;;;;28.35;14.88;;;0.40;99.90;;;;;;5008581;28;20057;-73
2021/01/08 00:36:53;;;;;;;22.70;12.98;;;0.40;99.90;;;;;;4991129;28;20042;-72
2021/01/08 00:39:24;;;;;;;21.63;12.10;;;0.50;99.90;;;;;;5000005;28;20129;-73
2021/01/08 00:41:51;;;;;;;25.45;12.52;;;0.40;99.90;;;;;;5007652;28;20125;-72
2021/01/08 00:44:17;;;;;;;19.65;10.95;;;0.40;99.90;;;;;;5008742;28;20096;-72
2021/01/08 00:46:49;;;;;;;20.83;12.73;;;0.50;99.90;;;;;;4998522;28;20301;-72
2021/01/08 00:49:16;;;;;;;23.30;12.43;;;0.50;99.90;;;;;;5008825;28;20133;-72
2021/01/08 00:51:43;;;;;;;25.15;11.30;;;0.50;99.90;;;;;;5008325;28;20107;-72
2021/01/08 00:54:09;;;;;;;22.30;11.25;;;0.50;99.90;;;;;;5009021;28;20545;-73
2021/01/08 00:56:36;;;;;;;21.73;11.00;;;0.50;99.90;;;;;;5008087;28;20104;-73
2021/01/08 00:59:03;;;;;;;21.70;10.63;;;0.50;99.90;;;;;;5009219;28;20200;-73
2021/01/08 01:01:30;;;;;;;20.73;11.23;;;0.60;99.90;;;;;;5009063;28;20140;-73
2021/01/08 01:03:56;;;;;;;19.80;11.30;;;0.60;99.90;;;;;;5009268;28;20057;-73
2021/01/08 01:06:27;;;;;;;22.60;11.90;;;0.60;99.90;;;;;;5006337;28;20050;-72
2021/01/08 01:08:54;;;;;;;19.58;10.57;;;0.60;99.90;;;;;;5008468;28;20486;-73
2021/01/08 01:11:21;;;;;;;21.77;11.10;;;0.60;99.90;;;;;;5008775;28;20083;-73
2021/01/08 01:13:49;;;;;;;23.67;11.30;;;0.60;99.90;;;;;;4998512;28;20512;-73
2021/01/08 01:16:16;;;;;;;15.82;8.30;;;0.60;99.90;;;;;;5012429;28;20140;-73
2021/01/08 01:18:43;;;;;;;20.75;12.40;;;0.60;99.90;;;;;;5013159;28;20368;-73
2021/01/08 01:21:10;;;;;;;18.92;9.48;;;0.60;99.90;;;;;;5012062;28;20057;-73
2021/01/08 01:23:37;;;;;;;23.80;12.30;;;0.70;99.90;;;;;;5013088;28;20129;-73
2021/01/08 01:26:04;;;;;;;23.40;11.98;;;0.60;99.90;;;;;;5012852;28;20046;-73
2021/01/08 01:28:31;;;;;;;20.38;10.38;;;0.60;99.90;;;;;;5012432;28;20050;-72
2021/01/08 01:30:58;;;;;;;20.80;11.85;;;0.60;99.90;;;;;;5013363;28;20046;-72
2021/01/08 01:33:25;;;;;;;20.60;10.93;;;0.70;99.90;;;;;;5012716;28;20527;-72
2021/01/08 01:35:52;;;;;;;23.67;12.18;;;0.70;99.90;;;;;;5012402;28;20042;-72
2021/01/08 01:38:19;;;;;;;20.10;10.90;;;0.70;99.90;;;;;;5012642;28;20100;-72
2021/01/08 01:40:46;;;;;;;19.80;10.43;;;0.70;99.90;;;;;;5012814;28;20080;-72
2021/01/08 01:43:13;;;;;;;22.02;11.77;;;0.70;99.90;;;;;;5012387;28;20065;-72
2021/01/08 01:45:39;;;;;;;23.27;11.15;;;0.60;99.90;;;;;;4995281;28;20077;-72
2021/01/08 01:48:08;;;;;;;19.25;10.63;;;0.60;99.90;;;;;;5013031;28;20151;-72
2021/01/08 01:50:34;;;;;;;27.52;12.82;;;0.70;99.90;;;;;;5012003;28;20139;-72
2021/01/08 01:53:02;;;;;;;19.52;11.07;;;0.60;99.90;;;;;;4994987;28;20100;-72
2021/01/08 01:55:30;;;;;;;15.10;8.98;;;0.70;99.90;;;;;;5011910;28;20476;-72
2021/01/08 01:57:58;;;;;;;16.83;9.52;;;0.60;99.90;;;;;;5018640;28;20128;-72
2021/01/08 02:00:25;;;;;;;23.00;11.68;;;0.60;99.90;;;;;;5013723;28;20046;-72
2021/01/08 02:03:10;;;;;;;22.25;10.32;;;0.70;99.90;;;;;;5009250;28;20465;-72
2021/01/08 02:05:39;;;;;;;19.80;9.75;;;0.60;99.90;;;;;;5009138;28;20141;-72
2021/01/08 02:08:16;;;;;;;18.35;10.23;;;0.60;99.90;;;;;;5010412;28;20057;-73
2021/01/08 02:10:53;;;;;;;18.23;10.25;;;0.70;99.90;;;;;;5010526;28;20084;-73
2021/01/08 02:13:29;;;;;;;17.70;10.25;;;0.60;99.90;;;;;;5008513;28;20088;-73
2021/01/08 02:15:57;;;;;;;20.25;11.15;;;0.60;99.90;;;;;;4990134;28;20400;-73
2021/01/08 02:18:26;;;;;;;21.55;11.75;;;0.60;99.90;;;;;;5007847;28;20352;-73
2021/01/08 02:20:55;;;;;;;23.42;11.27;;;0.70;99.90;;;;;;5012183;28;20432;-73
2021/01/08 02:23:29;;;;;;;20.58;11.07;;;0.70;99.90;;;;;;5010012;28;20127;-73
2021/01/08 02:25:57;;;;;;;20.08;9.65;;;0.70;99.90;;;;;;5008055;28;20046;-73
2021/01/08 02:28:25;;;;;;;23.80;11.80;;;0.60;99.90;;;;;;4997793;28;20404;-73
2021/01/08 02:30:52;;;;;;;23.05;12.07;;;0.70;99.90;;;;;;5004661;28;20499;-73
2021/01/08 02:33:19;;;;;;;21.88;11.57;;;0.80;99.90;;;;;;5009070;28;20133;-73
2021/01/08 02:35:49;;;;;;;18.70;10.63;;;0.80;99.90;;;;;;5009101;28;20069;-73
2021/01/08 02:38:18;;;;;;;23.40;12.52;;;0.70;99.90;;;;;;5006619;28;20048;-72
2021/01/08 02:40:47;;;;;;;20.63;10.82;;;0.70;99.90;;;;;;5008588;28;20073;-72
2021/01/08 02:43:18;;;;;;;21.10;11.95;;;0.60;99.90;;;;;;5007535;28;20048;-72
2021/01/08 02:45:45;;;;;;;22.20;11.75;;;0.70;99.90;;;;;;4999992;28;20141;-72
2021/01/08 02:48:11;;;;;;;19.48;11.05;;;0.60;99.90;;;;;;5008602;28;20119;-73
2021/01/08 02:50:38;;;;;;;17.20;9.93;;;0.60;99.90;;;;;;5008603;28;20050;-72
2021/01/08 02:53:08;;;;;;;20.05;11.90;;;0.60;99.90;;;;;;4990453;28;20045;-73
2021/01/08 02:55:36;;;;;;;20.13;11.00;;;0.70;99.90;;;;;;5008304;28;20046;-73
2021/01/08 02:58:04;;;;;;;17.40;10.05;;;0.60;99.90;;;;;;5008550;28;20555;-73
2021/01/08 03:00:32;;;;;;;24.48;12.48;;;0.60;99.90;;;;;;5007909;28;20602;-73
2021/01/08 03:03:00;;;;;;;19.63;11.38;;;0.60;99.90;;;;;;5007610;28;20084;-73
2021/01/08 03:05:29;;;;;;;23.88;12.07;;;0.60;99.90;;;;;;5009401;28;20057;-73
2021/01/08 03:07:56;;;;;;;18.67;10.52;;;0.60;99.90;;;;;;4978093;28;873741;-73
2021/01/08 03:10:24;;;;;;;17.23;9.93;;;0.60;99.90;;;;;;5008993;28;20137;-73
2021/01/08 03:12:56;;;;;;;19.42;10.45;;;0.60;99.90;;;;;;5009874;28;20132;-73
2021/01/08 03:15:23;;;;;;;17.95;11.50;;;0.70;99.90;;;;;;5009429;28;20161;-73
2021/01/08 03:17:50;;;;;;;18.42;10.23;;;0.60;99.90;;;;;;4991103;28;20128;-73
2021/01/08 03:20:17;;;;;;;17.98;10.43;;;0.60;99.90;;;;;;4991664;28;20117;-73
2021/01/08 03:22:43;;;;;;;19.77;12.13;;;0.60;99.90;;;;;;5009871;28;20041;-73
2021/01/08 03:25:10;;;;;;;17.95;11.00;;;0.70;99.90;;;;;;5008069;28;20112;-73
2021/01/08 03:27:37;;;;;;;16.83;10.98;;;0.60;99.90;;;;;;5009130;28;20096;-73
2021/01/08 03:30:23;;;;;;;20.23;11.20;;;0.80;99.90;;;;;;5008234;28;20231;-73
2021/01/08 03:32:50;;;;;;;17.38;10.07;;;0.80;99.90;;;;;;5001328;28;20542;-73
2021/01/08 03:35:16;;;;;;;15.82;8.77;;;0.80;99.90;;;;;;5006871;28;20073;-73
2021/01/08 03:37:43;;;;;;;17.67;9.38;;;0.80;99.90;;;;;;5006778;28;20042;-73
2021/01/08 03:40:10;;;;;;;16.67;10.57;;;0.70;99.90;;;;;;4983150;28;20124;-73
2021/01/08 03:42:36;;;;;;;20.80;11.70;;;0.80;99.90;;;;;;5008136;28;20077;-73
2021/01/08 03:45:04;;;;;;;16.30;10.27;;;0.70;99.90;;;;;;5009617;28;20133;-73
2021/01/08 03:47:31;;;;;;;15.20;7.55;;;0.70;99.90;;;;;;5007336;28;20045;-73
2021/01/08 03:49:57;;;;;;;13.18;9.15;;;0.60;99.90;;;;;;5006136;28;20128;-73
2021/01/08 03:52:23;;;;;;;14.43;9.57;;;0.70;99.90;;;;;;5007602;28;20054;-72
2021/01/08 03:54:50;;;;;;;14.98;9.52;;;0.70;99.90;;;;;;5008463;28;20078;-73
2021/01/08 03:57:16;;;;;;;16.95;10.15;;;0.60;99.90;;;;;;5007858;28;20146;-73
2021/01/08 03:59:42;;;;;;;20.23;10.38;;;0.60;99.90;;;;;;5008790;28;20118;-73
2021/01/08 04:02:09;;;;;;;17.45;10.50;;;0.70;99.90;;;;;;4991140;28;20061;-73
2021/01/08 04:04:36;;;;;;;13.95;7.88;;;0.80;99.90;;;;;;5008909;28;20149;-73
2021/01/08 04:07:03;;;;;;;16.92;10.35;;;0.70;99.90;;;;;;5005777;28;20076;-73
2021/01/08 04:09:29;;;;;;;16.98;11.00;;;0.80;99.90;;;;;;5007276;28;20575;-73
2021/01/08 04:11:55;;;;;;;17.33;9.45;;;0.80;99.90;;;;;;5009035;28;20054;-73
2021/01/08 04:14:22;;;;;;;14.43;8.45;;;0.80;99.90;;;;;;5007510;28;20144;-72
2021/01/08 04:16:48;;;;;;;14.65;8.70;;;0.80;99.90;;;;;;5009030;28;20054;-73
2021/01/08 04:19:15;;;;;;;13.88;7.85;;;0.70;99.90;;;;;;4989287;28;20054;-72
2021/01/08 04:21:45;;;;;;;13.15;8.48;;;0.80;99.90;;;;;;5008215;28;20065;-73
2021/01/08 04:24:12;;;;;;;14.40;8.73;;;0.80;99.90;;;;;;5008308;28;20084;-72
2021/01/08 04:26:40;;;;;;;13.13;8.35;;;0.80;99.90;;;;;;4998317;28;20143;-73
2021/01/08 04:29:07;;;;;;;13.48;8.48;;;0.70;99.90;;;;;;5007484;28;20541;-73
2021/01/08 04:31:34;;;;;;;15.45;7.65;;;0.70;99.90;;;;;;4989537;28;20049;-73
2021/01/08 04:34:01;;;;;;;9.10;5.28;;;0.70;99.90;;;;;;5007475;28;20052;-73
2021/01/08 04:36:27;;;;;;;12.98;8.23;;;0.80;99.90;;;;;;5007250;28;20081;-73
2021/01/08 04:38:53;;;;;;;12.48;7.05;;;0.80;99.90;;;;;;5007261;28;20107;-73
2021/01/08 04:41:21;;;;;;;15.40;7.97;;;0.80;99.90;;;;;;5008416;28;20151;-73
2021/01/08 04:43:47;;;;;;;12.02;7.80;;;0.70;99.90;;;;;;5007020;28;20478;-73
2021/01/08 04:46:35;;;;;;;14.27;8.80;;;0.70;99.90;;;;;;5007805;28;20112;-73
2021/01/08 04:49:05;;;;;;;14.43;8.75;;;0.70;99.90;;;;;;5007473;28;20041;-73
2021/01/08 04:51:34;;;;;;;15.48;8.75;;;0.80;99.90;;;;;;5004858;28;20605;-73
2021/01/08 04:54:02;;;;;;;14.00;8.23;;;0.80;99.90;;;;;;5007815;28;20506;-73
2021/01/08 04:56:31;;;;;;;13.18;8.32;;;0.80;99.90;;;;;;5007046;28;20042;-73
2021/01/08 04:58:57;;;;;;;13.40;8.00;;;0.70;99.90;;;;;;5007900;28;20578;-72
2021/01/08 05:01:24;;;;;;;14.07;8.77;;;0.80;99.90;;;;;;5006446;28;20112;-73
2021/01/08 05:03:50;;;;;;;13.82;7.88;;;0.90;99.90;;;;;;5006623;28;20483;-73
2021/01/08 05:06:17;;;;;;;15.30;8.68;;;0.90;99.90;;;;;;5008086;28;20088;-73
2021/01/08 05:08:44;;;;;;;13.30;8.80;;;0.80;99.90;;;;;;5007672;28;20046;-73
2021/01/08 05:11:21;;;;;;;13.90;8.32;;;0.80;99.90;;;;;;5006071;28;20297;-73
2021/01/08 05:13:54;;;;;;;15.32;9.07;;;0.80;99.90;;;;;;5007266;28;20554;-73
2021/01/08 05:16:22;;;;;;;15.90;10.20;;;0.90;99.90;;;;;;5008237;28;20120;-73
2021/01/08 05:18:50;;;;;;;12.75;7.82;;;0.80;99.90;;;;;;5007405;28;20049;-72
2021/01/08 05:21:17;;;;;;;13.25;8.43;;;0.80;99.90;;;;;;4989392;28;20046;-73
2021/01/08 05:23:44;;;;;;;14.73;8.85;;;0.80;99.90;;;;;;5006422;28;20509;-73
2021/01/08 05:26:13;;;;;;;16.55;8.38;;;0.80;99.90;;;;;;5006950;28;20071;-73
2021/01/08 05:28:46;;;;;;;12.15;6.85;;;0.80;99.90;;;;;;5008051;28;20167;-73
2021/01/08 05:31:13;;;;;;;10.90;7.10;;;0.80;99.90;;;;;;5007751;28;20057;-73
2021/01/08 05:33:41;;;;;;;11.93;7.15;;;0.90;99.90;;;;;;5007553;28;20125;-73
2021/01/08 05:36:14;;;;;;;12.30;7.82;;;0.80;99.90;;;;;;4997060;28;20107;-73
2021/01/08 05:38:42;;;;;;;12.70;7.57;;;0.80;99.90;;;;;;5001660;28;20127;-73
2021/01/08 05:41:10;;;;;;;12.45;7.15;;;0.80;99.90;;;;;;5006431;28;20133;-73
2021/01/08 05:43:45;;;;;;;11.10;6.78;;;0.70;99.90;;;;;;5008339;28;20149;-73
2021/01/08 05:46:23;;;;;;;13.80;7.60;;;0.80;99.90;;;;;;5002079;28;20244;-73
2021/01/08 05:48:57;;;;;;;9.48;5.70;;;0.80;99.90;;;;;;4988450;28;20050;-73
2021/01/08 05:51:26;;;;;;;13.75;6.63;;;0.90;99.90;;;;;;5007044;28;20273;-73
2021/01/08 05:53:53;;;;;;;12.20;7.10;;;0.90;99.90;;;;;;5007184;28;20099;-73
2021/01/08 05:56:21;;;;;;;11.43;6.38;;;0.90;99.90;;;;;;5007665;28;20527;-73
2021/01/08 05:58:49;;;;;;;10.57;5.95;;;0.70;99.90;;;;;;4989654;28;20238;-73
2021/01/08 06:01:17;;;;;;;10.68;6.07;;;0.80;99.90;;;;;;5007605;28;20049;-73
2021/01/08 06:03:45;;;;;;;12.82;6.78;;;0.80;99.90;;;;;;5010849;28;20062;-73
2021/01/08 06:06:14;;;;;;;11.60;6.28;;;0.80;99.90;;;;;;5008497;28;20103;-73
2021/01/08 06:08:53;;;;;;;11.32;6.97;;;0.80;99.90;;;;;;5010215;28;20526;-73
2021/01/08 06:11:28;;;;;;;11.52;6.88;;;0.80;99.90;;;;;;5010250;28;20050;-73
2021/01/08 06:13:56;;;;;;;10.88;6.20;;;0.80;99.90;;;;;;5010980;28;20483;-73
2021/01/08 06:16:23;;;;;;;12.90;6.22;;;0.80;99.90;;;;;;5011298;28;20041;-73
2021/01/08 06:18:54;;;;;;;14.65;6.68;;;0.70;99.90;;;;;;5010411;28;20054;-73
2021/01/08 06:21:34;;;;;;;8.88;5.38;;;0.80;99.90;;;;;;5010069;28;20137;-73
2021/01/08 06:24:00;;;;;;;12.23;5.80;;;0.80;99.90;;;;;;5009260;28;20078;-73
2021/01/08 06:26:30;;;;;;;9.43;6.03;;;0.80;99.90;;;;;;5009783;28;20149;-74
2021/01/08 06:29:01;;;;;;;13.20;5.75;;;0.80;99.90;;;;;;5010817;28;20086;-73
2021/01/08 06:31:45;;;;;;;11.23;5.95;;;0.80;99.90;;;;;;5010423;28;20057;-73
2021/01/08 06:34:11;;;;;;;9.68;5.28;;;0.80;99.90;;;;;;5008935;28;20042;-73
2021/01/08 06:36:46;;;;;;;9.30;5.45;;;0.80;99.90;;;;;;5010009;28;20042;-73
2021/01/08 06:39:21;;;;;;;10.10;5.90;;;0.80;99.90;;;;;;5009238;28;20049;-73
2021/01/08 06:41:54;;;;;;;13.10;6.55;;;0.70;99.90;;;;;;5010268;28;20096;-73
2021/01/08 06:44:29;;;;;;;10.73;5.45;;;0.70;99.90;;;;;;5010189;28;20058;-73
2021/01/08 06:46:58;;;;;;;13.82;8.05;;;0.70;99.90;;;;;;5010143;28;20045;-73
2021/01/08 06:49:25;;;;;;;16.10;8.40;;;0.70;99.90;;;;;;5009945;28;20054;-73
2021/01/08 06:51:51;;;;;;;12.38;6.57;;;0.70;99.90;;;;;;5009467;28;20106;-73
2021/01/08 06:54:18;;;;;;;14.30;7.78;;;0.70;99.90;;;;;;5010256;28;20419;-73
2021/01/08 06:56:46;;;;;;;15.95;7.15;;;0.60;99.90;;;;;;4989375;28;20587;-73
2021/01/08 06:59:21;;;;;;;16.33;6.65;;;0.60;99.90;;;;;;5008822;28;20041;-73
2021/01/08 07:02:11;;;;;;;13.77;7.63;;;0.60;99.90;;;;;;5009954;28;20108;-73
2021/01/08 07:04:39;;;;;;;13.23;7.57;;;0.60;99.90;;;;;;5003001;28;20419;-73
2021/01/08 07:07:12;;;;;;;17.05;7.53;;;0.60;99.90;;;;;;5010470;28;20511;-73
2021/01/08 07:09:40;;;;;;;13.65;7.07;;;0.50;99.90;;;;;;5009061;28;20108;-72
2021/01/08 07:12:09;;;;;;;12.93;7.15;;;0.60;99.90;;;;;;5009133;28;20112;-72
2021/01/08 07:14:36;;;;;;;14.43;8.05;;;0.60;99.90;;;;;;5009608;28;20088;-72
2021/01/08 07:17:14;;;;;;;14.30;6.47;;;0.60;99.90;;;;;;5009288;28;20042;-72
2021/01/08 07:19:42;;;;;;;13.88;8.38;;;0.50;99.90;;;;;;5005784;28;20128;-72
2021/01/08 07:22:17;;;;;;;20.42;9.05;;;0.50;99.90;;;;;;5009754;28;20038;-74
2021/01/08 07:24:46;;;;;;;14.32;8.07;;;0.60;99.90;;;;;;5009982;28;20081;-74
2021/01/08 07:27:21;;;;;;;18.33;9.15;;;0.50;99.90;;;;;;5009839;28;20567;-74
2021/01/08 07:30:00;;;;;;;10.00;5.38;;;0.50;99.90;;;;;;5010094;28;20100;-74
2021/01/08 07:32:44;;;;;;;13.57;7.18;;;0.50;99.90;;;;;;5009249;28;20050;-73
2021/01/08 07:35:31;;;;;;;18.25;9.10;;;0.60;99.90;;;;;;5003201;28;20080;-74
2021/01/08 07:38:15;;;;;;;13.75;7.35;;;0.60;99.90;;;;;;5008725;28;20052;-73
2021/01/08 07:40:50;;;;;;;16.17;8.60;;;0.50;99.90;;;;;;5007254;28;20428;-72
2021/01/08 07:43:17;;;;;;;18.10;9.13;;;0.60;99.90;;;;;;4991580;28;20499;-72
2021/01/08 07:45:57;;;;;;;15.82;9.32;;;0.50;99.90;;;;;;5009535;28;20477;-72
2021/01/08 07:48:35;;;;;;;18.52;9.93;;;0.60;99.90;;;;;;5012108;28;20115;-72
2021/01/08 07:51:10;;;;;;;17.05;8.20;;;0.60;99.90;;;;;;5008564;28;20092;-72
2021/01/08 07:53:43;;;;;;;20.85;9.32;;;0.50;99.90;;;;;;5008198;28;20465;-72
2021/01/08 07:56:21;;;;;;;19.42;10.13;;;0.60;99.90;;;;;;5009042;28;20061;-72
2021/01/08 07:59:00;;;;;;;16.40;8.85;;;0.70;99.90;;;;;;5002166;28;20042;-72
2021/01/08 08:01:27;;;;;;;19.75;9.50;;;0.60;99.90;;;;;;5007919;28;20121;-72
2021/01/08 08:03:59;;;;;;;31.35;10.40;;;0.60;99.90;;;;;;5008451;28;20042;-72
2021/01/08 08:06:28;;;;;;;17.65;9.52;;;0.50;99.90;;;;;;5006327;28;20085;-72
2021/01/08 08:08:58;;;;;;;18.17;9.45;;;0.50;99.90;;;;;;5008507;28;20801;-72
2021/01/08 08:11:28;;;;;;;17.92;8.85;;;0.50;99.90;;;;;;4997100;28;20168;-72
2021/01/08 08:13:54;;;;;;;18.92;10.48;;;0.50;99.90;;;;;;5002261;28;20116;-72
2021/01/08 08:16:34;;;;;;;19.70;10.77;;;0.60;99.90;;;;;;5007791;28;20141;-72
2021/01/08 08:19:07;;;;;;;15.02;8.82;;;0.50;99.90;;;;;;5007311;28;20124;-72
2021/01/08 08:21:33;;;;;;;15.18;8.50;;;0.50;99.90;;;;;;5006798;28;20050;-72
2021/01/08 08:24:02;;;;;;;20.70;9.95;;;0.50;99.90;;;;;;4989594;28;20139;-72
2021/01/08 08:26:29;;;;;;;15.18;8.98;;;0.60;99.90;;;;;;5007765;28;20053;-72
2021/01/08 08:29:14;;;;;;;16.05;9.77;;;0.60;99.90;;;;;;5005391;28;20528;-72
2021/01/08 08:31:46;;;;;;;16.73;8.98;;;0.40;99.90;;;;;;5005763;28;20080;-72
2021/01/08 08:34:14;;;;;;;16.20;8.90;;;0.50;99.90;;;;;;5007553;28;20056;-72
2021/01/08 08:36:42;;;;;;;18.40;9.80;;;0.50;99.90;;;;;;5012031;28;20065;-72
2021/01/08 08:39:11;;;;;;;15.63;6.70;;;0.50;99.90;;;;;;5005436;28;20146;-72
2021/01/08 08:41:40;;;;;;;19.67;9.55;;;0.40;99.90;;;;;;5005052;28;20127;-72
2021/01/08 08:44:11;;;;;;;18.27;10.05;;;0.40;99.90;;;;;;4972013;28;20425;-72
2021/01/08 08:46:51;;;;;;;19.92;10.35;;;0.30;99.90;;;;;;5007544;28;20072;-73
2021/01/08 08:49:28;;;;;;;21.33;10.55;;;0.50;99.90;;;;;;5006864;28;20049;-72
2021/01/08 08:51:56;;;;;;;19.25;10.85;;;0.50;99.90;;;;;;4990836;28;20046;-72
2021/01/08 08:54:26;;;;;;;23.92;12.38;;;0.60;99.90;;;;;;5005829;28;20046;-72
2021/01/08 08:56:57;;;;;;;21.50;11.88;;;0.60;99.90;;;;;;4991131;28;20131;-73
2021/01/08 08:59:36;;;;;;;20.23;11.05;;;0.60;99.90;;;;;;4994783;28;20049;-72
2021/01/08 09:02:04;;;;;;;24.92;12.18;;;0.50;99.90;;;;;;5007309;28;20053;-72
2021/01/08 09:04:30;;;;;;;31.40;14.50;;;0.50;99.90;;;;;;5007604;28;20054;-72
2021/01/08 09:07:01;;;;;;;35.45;16.20;;;0.50;99.90;;;;;;5007422;28;20053;-72
2021/01/08 09:09:31;;;;;;;24.52;12.82;;;0.40;99.90;;;;;;4995857;28;20147;-72
2021/01/08 09:12:30;;;;;;;35.92;16.98;;;0.40;99.90;;;;;;5006404;28;20073;-72
2021/01/08 09:15:03;;;;;;;28.40;12.70;;;0.40;99.90;;;;;;5003934;28;20096;-72
2021/01/08 09:17:32;;;;;;;;;;;0.50;99.90;;;;;;5008107;28;20056;-74
2021/01/08 09:20:01;;;;;;;34.50;17.85;;;0.50;99.90;;;;;;5005150;28;20322;-74
2021/01/08 09:22:30;;;;;;;25.55;12.55;;;0.60;99.90;;;;;;5007450;28;20100;-74
2021/01/08 09:25:00;;;;;;;29.25;14.80;;;0.60;99.90;;;;;;5008739;28;20042;-74
2021/01/08 09:27:27;;;;;;;24.05;11.93;;;0.50;99.90;;;;;;5006781;28;20120;-74
2021/01/08 09:29:54;;;;;;;26.83;12.07;;;0.40;99.90;;;;;;5008554;28;20050;-74
2021/01/08 09:32:32;;;;;;;35.17;16.58;;;0.40;99.90;;;;;;5007286;28;20596;-73
2021/01/08 09:35:04;;;;;;;26.75;13.25;;;0.30;99.90;;;;;;5007871;28;20144;-74
2021/01/08 09:37:42;;;;;;;24.98;14.65;;;0.30;99.90;;;;;;4994140;28;20046;-74
2021/01/08 09:40:10;;;;;;;32.25;14.52;;;0.40;99.90;;;;;;5010705;28;20104;-72
2021/01/08 09:42:38;;;;;;;32.17;14.23;;;0.30;99.90;;;;;;5001561;28;20205;-72
2021/01/08 09:45:23;;;;;;;25.05;12.75;;;0.40;99.90;;;;;;5012821;28;20145;-74
2021/01/08 09:47:52;;;;;;;27.92;14.25;;;0.40;99.90;;;;;;5011128;28;20057;-72
2021/01/08 09:50:27;;;;;;;24.88;11.95;;;0.40;99.90;;;;;;4990474;28;20054;-72
2021/01/08 09:52:59;;;;;;;24.52;12.98;;;0.40;99.90;;;;;;5011111;28;20088;-72
2021/01/08 09:55:28;;;;;;;23.15;13.20;;;0.40;99.90;;;;;;4994319;28;20045;-72
2021/01/08 09:57:59;;;;;;;22.38;11.20;;;0.50;99.90;;;;;;5011606;28;20042;-72
2021/01/08 10:00:33;;;;;;;26.20;13.65;;;0.40;99.90;;;;;;5011412;28;20046;-74
2021/01/08 10:03:04;;;;;;;33.33;17.35;;;0.40;99.90;;;;;;5007838;28;20061;-74
2021/01/08 10:05:32;;;;;;;21.67;12.45;;;0.40;99.90;;;;;;5010535;28;20526;-74
2021/01/08 10:08:01;;;;;;;24.08;12.40;;;0.50;99.90;;;;;;5006966;28;20104;-74
2021/01/08 10:10:27;;;;;;;23.48;12.52;;;0.40;99.90;;;;;;5010285;28;20050;-72
2021/01/08 10:12:56;;;;;;;25.20;13.40;;;0.40;99.90;;;;;;5010832;28;20050;-72
2021/01/08 10:15:47;;;;;;;22.55;11.52;;;0.50;99.90;;;;;;5011337;28;20061;-72
2021/01/08 10:18:14;;;;;;;22.30;11.50;;;0.50;99.90;;;;;;5019854;28;20565;-72
2021/01/08 10:20:52;;;;;;;19.10;11.85;;;0.50;99.90;;;;;;5011137;28;20053;-72
2021/01/08 10:23:24;;;;;;;22.10;11.65;;;0.40;99.90;;;;;;5010763;28;20046;-72
2021/01/08 10:26:09;;;;;;;21.25;11.57;;;0.40;99.90;;;;;;5010119;28;20601;-72
2021/01/08 10:28:47;;;;;;;17.40;10.00;;;0.50;99.90;;;;;;5001188;28;20124;-72
2021/01/08 10:31:15;;;;;;;23.02;11.70;;;0.60;99.90;;;;;;5010849;28;20532;-72
2021/01/08 10:33:42;;;;;;;24.70;12.25;;;0.50;99.90;;;;;;5010807;28;20046;-72
2021/01/08 10:36:09;;;;;;;23.10;13.10;;;0.40;99.90;;;;;;5010571;28;20069;-72
2021/01/08 10:38:35;;;;;;;22.48;13.10;;;0.50;99.90;;;;;;5009715;28;20452;-74
2021/01/08 10:41:02;;;;;;;22.63;11.05;;;0.60;99.90;;;;;;5010816;28;20046;-72
2021/01/08 10:43:31;;;;;;;24.88;12.05;;;0.60;99.90;;;;;;5008344;28;20058;-72
2021/01/08 10:45:57;;;;;;;29.23;15.73;;;0.50;99.90;;;;;;4990613;28;20050;-72
2021/01/08 10:48:24;;;;;;;23.55;11.93;;;0.70;99.90;;;;;;5011922;28;20478;-73
2021/01/08 10:50:51;;;;;;;24.95;13.45;;;0.70;99.90;;;;;;5001396;28;20081;-73
2021/01/08 10:53:17;;;;;;;26.92;13.48;;;0.60;99.90;;;;;;5007995;28;20515;-74
2021/01/08 10:55:47;;;;;;;23.42;13.15;;;0.70;99.90;;;;;;5008605;28;20103;-73
2021/01/08 10:58:16;;;;;;;21.75;12.55;;;0.80;99.90;;;;;;5012375;28;20344;-73
2021/01/08 11:00:46;;;;;;;27.95;14.00;;;0.90;99.90;;;;;;5009510;28;20046;-74
2021/01/08 11:03:13;;;;;;;28.80;15.57;;;1.10;99.90;;;;;;4991904;28;20060;-74
2021/01/08 11:05:43;;;;;;;20.05;11.13;;;1.20;99.90;;;;;;5014311;28;20052;-74
2021/01/08 11:08:10;;;;;;;27.05;12.70;;;1.10;99.90;;;;;;5011432;28;20053;-74
2021/01/08 11:10:38;;;;;;;25.80;14.20;;;1.20;99.90;;;;;;5010022;28;20050;-72
2021/01/08 11:13:05;;;;;;;27.00;14.18;;;1.30;99.90;;;;;;5009285;28;20056;-74
2021/01/08 11:15:33;;;;;;;22.88;12.48;;;1.40;99.90;;;;;;4979097;28;20041;-74
2021/01/08 11:17:59;;;;;;;55.15;25.27;;;1.30;99.90;;;;;;5009527;28;20387;-73
2021/01/08 11:20:26;;;;;;;34.38;17.63;;;1.20;99.90;;;;;;5010063;28;20103;-74
2021/01/08 11:22:54;;;;;;;20.88;11.85;;;1.20;99.90;;;;;;4991071;28;20069;-73
2021/01/08 11:25:21;;;;;;;24.27;11.95;;;1.10;99.90;;;;;;5009166;28;20661;-74
2021/01/08 11:27:47;;;;;;;22.88;12.27;;;1.00;99.90;;;;;;5008954;28;20080;-74
2021/01/08 11:30:14;;;;;;;25.25;13.82;;;1.10;99.90;;;;;;5007328;28;20144;-74
2021/01/08 11:32:40;;;;;;;26.90;13.25;;;1.20;99.90;;;;;;5006842;28;20131;-73
2021/01/08 11:35:08;;;;;;;23.77;12.93;;;1.30;99.90;;;;;;4993774;28;20234;-73
2021/01/08 11:37:38;;;;;;;27.83;12.98;;;1.40;99.90;;;;;;5009186;28;20494;-74
2021/01/08 11:40:05;;;;;;;22.10;11.38;;;1.40;99.90;;;;;;5011876;28;20077;-73
2021/01/08 11:42:32;;;;;;;30.27;15.88;;;1.30;99.90;;;;;;5007564;28;20507;-73
2021/01/08 11:44:59;;;;;;;43.55;21.95;;;1.30;99.90;;;;;;5000812;28;20716;-73
2021/01/08 11:47:26;;;;;;;31.02;17.20;;;1.50;99.90;;;;;;5016734;28;20072;-74
2021/01/08 11:49:52;;;;;;;38.38;16.77;;;1.50;99.90;;;;;;5009274;28;20456;-74
2021/01/08 11:52:19;;;;;;;24.85;13.38;;;1.70;99.90;;;;;;5008609;28;20096;-74
2021/01/08 11:54:45;;;;;;;27.73;15.90;;;1.80;99.90;;;;;;5009066;28;20167;-74
2021/01/08 11:57:14;;;;;;;27.75;14.45;;;1.90;99.90;;;;;;5008926;28;20046;-74
2021/01/08 11:59:40;;;;;;;23.38;12.27;;;1.80;99.90;;;;;;5008586;28;20104;-74
2021/01/08 12:02:06;;;;;;;27.58;13.85;;;1.60;99.90;;;;;;5010430;28;20196;-74
2021/01/08 12:04:33;;;;;;;31.52;15.52;;;1.30;99.90;;;;;;5024990;28;20046;-74
2021/01/08 12:07:01;;;;;;;24.98;13.05;;;1.30;99.90;;;;;;5009957;28;20146;-66
2021/01/08 12:09:28;;;;;;;30.50;14.85;;;1.30;99.90;;;;;;5009321;28;20092;-66
2021/01/08 12:12:03;;;;;;;25.23;14.73;;;1.30;99.90;;;;;;5008725;28;20081;-66
2021/01/08 12:14:31;;;;;;;35.80;17.42;;;1.40;99.90;;;;;;5007418;28;20095;-66
2021/01/08 12:17:05;;;;;;;26.45;14.32;;;1.50;99.90;;;;;;5015455;28;20444;-66
2021/01/08 12:19:35;;;;;;;29.20;14.55;;;1.60;99.90;;;;;;5006789;28;20199;-66
2021/01/08 12:22:02;;;;;;;23.88;13.20;;;1.50;99.90;;;;;;5012780;28;20464;-66
2021/01/08 12:24:29;;;;;;;30.73;15.45;;;1.40;99.90;;;;;;5014747;28;20169;-66
2021/01/08 12:26:56;;;;;;;23.70;12.13;;;1.20;99.90;;;;;;4992375;28;20470;-66
2021/01/08 12:29:23;;;;;;;29.38;15.52;;;1.20;99.90;;;;;;5008525;28;20057;-66
2021/01/08 12:31:50;;;;;;;23.48;12.43;;;1.20;99.90;;;;;;5008019;28;20153;-66
2021/01/08 12:34:17;;;;;;;25.85;13.45;;;1.20;99.90;;;;;;5005230;28;20069;-66
2021/01/08 12:36:44;;;;;;;24.55;13.65;;;1.20;99.90;;;;;;5005132;28;20686;-66
2021/01/08 12:39:11;;;;;;;28.27;13.50;;;1.20;99.90;;;;;;5008616;28;20046;-66
2021/01/08 12:41:38;;;;;;;23.90;14.40;;;1.30;99.90;;;;;;5007677;28;20082;-66
2021/01/08 12:44:05;;;;;;;21.25;12.25;;;1.10;99.90;;;;;;4990182;28;20069;-66
2021/01/08 12:46:32;;;;;;;22.60;11.73;;;1.20;99.90;;;;;;5003727;28;20058;-66
2021/01/08 12:49:03;;;;;;;21.50;12.77;;;1.10;99.90;;;;;;5008412;28;20053;-66
2021/01/08 12:51:29;;;;;;;21.58;13.68;;;1.10;99.90;;;;;;4990288;28;20049;-66
2021/01/08 12:53:56;;;;;;;27.27;14.35;;;1.20;99.90;;;;;;5008904;28;20050;-66